CPA1401 LIMC-VHHH
Flight info
| Callsign | CPA1401 |
|---|---|
| Flight time | N/A |
| Altitude | 30000 |
| Route | OSKOR DCT NEVNI DCT NOBMI DCT ELTAR DCT BARPI/N0484F310 DCT MAVIT DCT LAMIT DCT ASNEL DCT DINRO N743 UDROS UM859 BAMUP/N0482F330 UM859 KARDE UL851 TBN UM11 REBLO M11 MATAL T916 BALUN/K0889F330 T916 KUNAS N193 SR L163 TISIB/K0895F350 L141 KAMUD/K0887S1070 W186 SADAN Y1 OMBON W245 OVRAL/K0883S1130 B330 KWE W181 DUDIT A599 POU R473 SIERA |
| Aircraft | B748/H-SDE3FGHIJ7M1M2RWXY/LB1 |
Departure
| Time | N/A |
|---|---|
| Airport | Milan Malpensa International Airport (LIMC) |
Arrival
| Time | 2026-04-30 17:39 |
|---|---|
| Airport | Hong Kong International Airport (VHHH) |
| Time | Latitude | Longitude | Altitude | Speed | Heading |
|---|---|---|---|---|---|
| 2026-04-30 14:55 | 35.17033 | 100.08595 | 35035 ft | 536 kts | 119° |
| 2026-04-30 14:55 | 35.15340 | 100.12669 | 35035 ft | 536 kts | 119° |
| 2026-04-30 14:56 | 35.09224 | 100.27348 | 35035 ft | 536 kts | 119° |
| 2026-04-30 14:57 | 35.04136 | 100.39509 | 35035 ft | 536 kts | 119° |
| 2026-04-30 14:58 | 34.97332 | 100.55702 | 35035 ft | 536 kts | 119° |
| 2026-04-30 14:58 | 34.92218 | 100.67823 | 35035 ft | 536 kts | 119° |
| 2026-04-30 15:00 | 34.83694 | 100.87928 | 35035 ft | 536 kts | 119° |
| 2026-04-30 15:01 | 34.76830 | 101.04034 | 35035 ft | 536 kts | 119° |
| 2026-04-30 15:01 | 34.71662 | 101.16109 | 35035 ft | 536 kts | 119° |
| 2026-04-30 15:02 | 34.68213 | 101.24143 | 35035 ft | 536 kts | 120° |
| 2026-04-30 15:03 | 34.59545 | 101.44254 | 35035 ft | 536 kts | 120° |
| 2026-04-30 15:04 | 34.50892 | 101.64211 | 35035 ft | 536 kts | 120° |
| 2026-04-30 15:06 | 34.42160 | 101.84235 | 35035 ft | 536 kts | 120° |
| 2026-04-30 15:07 | 34.35172 | 102.00177 | 35035 ft | 536 kts | 120° |
| 2026-04-30 15:08 | 34.28211 | 102.16048 | 35035 ft | 536 kts | 120° |
| 2026-04-30 15:09 | 34.19401 | 102.35894 | 35035 ft | 536 kts | 120° |
| 2026-04-30 15:10 | 34.12533 | 102.51873 | 35035 ft | 536 kts | 119° |
| 2026-04-30 15:11 | 34.02217 | 102.75831 | 35035 ft | 536 kts | 119° |
| 2026-04-30 15:13 | 33.93634 | 102.95827 | 35035 ft | 536 kts | 119° |
| 2026-04-30 15:14 | 33.81534 | 103.23656 | 35035 ft | 536 kts | 120° |
| 2026-04-30 15:17 | 33.65889 | 103.59305 | 35035 ft | 536 kts | 120° |
| 2026-04-30 15:19 | 33.51920 | 103.90831 | 35035 ft | 536 kts | 120° |
| 2026-04-30 17:39 | 22.31195 | 113.90982 | 42 ft | 15 kts | 95° |
| 2026-04-30 17:41 | 22.30403 | 113.91347 | 42 ft | 12 kts | 78° |
| 2026-04-30 17:42 | 22.30390 | 113.91457 | 42 ft | 6 kts | 159° |
| 2026-04-30 17:42 | 22.30173 | 113.91544 | 42 ft | 20 kts | 160° |
| 2026-04-30 17:43 | 22.30039 | 113.91668 | 42 ft | 13 kts | 87° |
| 2026-04-30 17:44 | 22.29874 | 113.91826 | 42 ft | 12 kts | 68° |
| 2026-04-30 17:44 | 22.29949 | 113.92058 | 42 ft | 10 kts | 71° |
| 2026-04-30 17:46 | 22.30056 | 113.92384 | 42 ft | 8 kts | 49° |
| 2026-04-30 17:47 | 22.30144 | 113.92371 | 42 ft | 0 kts | 342° |